Time;durP1;ratioP1;P1;durP2;ratioP2;P2;SDS_P1;SDS_P2;PMS_P1;PMS_P2;Temp;Humidity;BMP_temperature;BMP_pressure;BME280_temperature;BME280_humidity;BME280_pressure;Samples;Min_cycle;Max_cycle;Signal;HPM_P1;HPM_P2
2023/04/10 00:01:34;;;;;;;;;;;14.60;50.00;;;;;;5073723;28;20023;-77
2023/04/10 00:04:00;;;;;;;;;;;14.60;50.00;;;;;;5073888;28;19943;-77
2023/04/10 00:06:26;;;;;;;;;;;14.60;50.00;;;;;;5075791;28;19920;-77
2023/04/10 00:08:52;;;;;;;;;;;14.60;50.00;;;;;;5077199;28;20378;-77
2023/04/10 00:11:18;;;;;;;;;;;14.60;50.00;;;;;;5077628;28;19978;-77
2023/04/10 00:13:43;;;;;;;;;;;14.50;50.00;;;;;;5095480;28;19920;-77
2023/04/10 00:16:09;;;;;;;;;;;14.50;50.00;;;;;;5095544;28;19920;-76
2023/04/10 00:18:35;;;;;;;;;;;14.60;50.00;;;;;;5095274;28;19997;-77
2023/04/10 00:21:01;;;;;;;;;;;14.50;50.00;;;;;;5095216;28;19924;-77
2023/04/10 00:23:27;;;;;;;;;;;14.50;50.00;;;;;;5077527;28;20421;-77
2023/04/10 00:25:52;;;;;;;;;;;14.50;50.70;;;;;;5076953;28;19920;-76
2023/04/10 00:28:18;;;;;;;;;;;14.50;50.00;;;;;;5077301;28;19919;-76
2023/04/10 00:30:43;;;;;;;;;;;14.50;50.00;;;;;;5094966;28;19974;-76
2023/04/10 00:33:09;;;;;;;;;;;14.50;50.00;;;;;;5077005;28;19965;-77
2023/04/10 00:35:34;;;;;;;;;;;14.50;50.00;;;;;;5094858;28;19920;-77
2023/04/10 00:38:00;;;;;;;;;;;14.50;50.00;;;;;;5076647;28;19986;-76
2023/04/10 00:40:26;;;;;;;;;;;14.50;50.00;;;;;;5095105;28;19927;-76
2023/04/10 00:42:51;;;;;;;;;;;14.50;50.00;;;;;;5094991;28;19965;-77
2023/04/10 00:45:17;;;;;;;;;;;14.50;50.00;;;;;;5076658;28;19920;-77
2023/04/10 00:47:42;;;;;;;;;;;14.60;50.00;;;;;;5076921;28;20286;-77
2023/04/10 00:50:08;;;;;;;;;;;14.50;50.00;;;;;;5076807;28;19926;-77
2023/04/10 00:52:34;;;;;;;;;;;14.50;50.00;;;;;;5076524;28;19920;-77
2023/04/10 00:54:59;;;;;;;;;;;14.40;49.90;;;;;;5094778;28;20019;-76
2023/04/10 00:57:26;;;;;;;;;;;14.50;49.90;;;;;;5076491;28;20386;-75
2023/04/10 00:59:52;;;;;;;;;;;14.50;50.00;;;;;;5076343;28;19924;-77
2023/04/10 01:02:18;;;;;;;;;;;14.40;49.90;;;;;;5076455;28;19926;-77
2023/04/10 01:04:44;;;;;;;;;;;14.40;49.90;;;;;;5076640;28;19920;-77
2023/04/10 01:07:18;;;;;;;;;;;14.40;49.80;;;;;;5076174;28;19943;-77
2023/04/10 01:09:47;;;;;;;;;;;14.40;49.90;;;;;;5076465;28;19919;-77
2023/04/10 01:12:28;;;;;;;;;;;14.40;49.80;;;;;;5076236;28;19920;-77
2023/04/10 01:15:00;;;;;;;;;;;14.40;49.90;;;;;;5076080;28;19944;-77
2023/04/10 01:17:30;;;;;;;;;;;14.40;49.80;;;;;;5076044;28;19920;-76
2023/04/10 01:20:15;;;;;;;;;;;14.40;49.90;;;;;;5076097;28;19924;-77
2023/04/10 01:28:15;;;;;;;;;;;14.40;49.80;;;;;;5110350;27;19912;-77
2023/04/10 01:30:41;;;;;;;;;;;14.40;49.80;;;;;;5108955;28;19920;-77
2023/04/10 01:33:08;;;;;;;;;;;14.30;49.80;;;;;;5108965;28;19926;-77
2023/04/10 01:35:35;;;;;;;;;;;14.30;49.70;;;;;;5108532;28;20375;-77
2023/04/10 01:38:01;;;;;;;;;;;14.30;49.80;;;;;;5108869;28;19926;-77
2023/04/10 01:40:28;;;;;;;;;;;14.30;49.80;;;;;;5092141;28;19920;-77
2023/04/10 01:42:54;;;;;;;;;;;14.30;49.80;;;;;;5108007;28;20485;-77
2023/04/10 01:45:22;;;;;;;;;;;14.30;49.80;;;;;;5108662;28;19920;-77
2023/04/10 01:47:48;;;;;;;;;;;14.30;49.80;;;;;;5108576;28;19931;-77
2023/04/10 01:50:14;;;;;;;;;;;14.30;49.80;;;;;;5108985;28;19920;-76
2023/04/10 01:52:40;;;;;;;;;;;14.30;49.80;;;;;;5108889;28;20037;-76
2023/04/10 01:55:06;;;;;;;;;;;14.30;49.80;;;;;;5108834;28;19920;-76
2023/04/10 01:57:34;;;;;;;;;;;14.20;49.80;;;;;;5108698;28;19920;-76
2023/04/10 02:00:00;;;;;;;;;;;14.30;49.90;;;;;;5108694;28;20010;-77
2023/04/10 02:02:29;;;;;;;;;;;14.20;49.80;;;;;;5108352;28;19956;-77
2023/04/10 02:04:55;;;;;;;;;;;14.20;49.80;;;;;;5108282;28;19939;-77
2023/04/10 02:10:12;;;;;;;;;;;14.20;49.80;;;;;;5110329;27;19912;-77
2023/04/10 02:12:40;;;;;;;;;;;14.20;49.80;;;;;;5108884;28;20402;-77
2023/04/10 02:15:07;;;;;;;;;;;14.20;49.80;;;;;;5108982;28;19946;-77
2023/04/10 02:17:33;;;;;;;;;;;14.20;49.80;;;;;;5108912;28;19920;-76
2023/04/10 02:19:59;;;;;;;;;;;14.20;49.80;;;;;;5109085;28;19961;-77
2023/04/10 02:22:25;;;;;;;;;;;14.20;49.80;;;;;;5109146;28;20026;-77
2023/04/10 02:24:51;;;;;;;;;;;14.20;49.80;;;;;;5108711;28;19920;-77
2023/04/10 02:27:33;;;;;;;;;;;14.20;49.80;;;;;;5109970;28;19976;-77
2023/04/10 02:29:59;;;;;;;;;;;14.20;49.80;;;;;;5108576;28;19924;-77
2023/04/10 02:32:25;;;;;;;;;;;14.20;49.80;;;;;;5108591;28;20022;-77
2023/04/10 02:34:50;;;;;;;;;;;14.20;49.80;;;;;;5107843;28;19920;-77
2023/04/10 02:37:19;;;;;;;;;;;14.20;49.80;;;;;;5108507;28;19943;-77
2023/04/10 02:39:44;;;;;;;;;;;14.10;49.80;;;;;;5108947;28;19924;-77
2023/04/10 02:42:10;;;;;;;;;;;14.10;49.80;;;;;;5108693;28;20390;-77
2023/04/10 02:44:38;;;;;;;;;;;14.20;49.80;;;;;;5109944;28;19920;-77
2023/04/10 02:47:03;;;;;;;;;;;14.10;49.80;;;;;;5108332;28;19926;-77
2023/04/10 02:49:29;;;;;;;;;;;14.20;49.80;;;;;;5108230;28;19924;-77
2023/04/10 02:51:54;;;;;;;;;;;14.20;49.80;;;;;;5108580;28;19924;-77
2023/04/10 02:54:20;;;;;;;;;;;14.10;49.80;;;;;;5108075;28;19927;-76
2023/04/10 02:56:46;;;;;;;;;;;14.10;49.80;;;;;;5108461;28;19920;-76
2023/04/10 02:59:12;;;;;;;;;;;14.10;49.80;;;;;;5109482;28;20440;-76
2023/04/10 03:01:38;;;;;;;;;;;14.10;49.80;;;;;;5109355;28;20448;-77
2023/04/10 03:04:04;;;;;;;;;;;14.10;49.80;;;;;;5108356;28;19920;-77
2023/04/10 03:06:29;;;;;;;;;;;14.10;49.80;;;;;;5108212;28;20283;-76
2023/04/10 03:08:55;;;;;;;;;;;14.10;49.80;;;;;;5107761;28;20393;-77
2023/04/10 03:11:21;;;;;;;;;;;14.10;49.80;;;;;;5107664;28;19946;-77
2023/04/10 03:13:47;;;;;;;;;;;14.10;49.80;;;;;;5109316;28;19920;-77
2023/04/10 03:16:13;;;;;;;;;;;14.10;49.80;;;;;;5107750;28;19959;-76
2023/04/10 03:18:39;;;;;;;;;;;14.10;49.80;;;;;;5107782;28;19951;-77
2023/04/10 03:21:04;;;;;;;;;;;14.00;49.70;;;;;;5095649;28;19924;-77
2023/04/10 03:23:30;;;;;;;;;;;14.10;49.80;;;;;;5094042;28;19978;-77
2023/04/10 03:25:55;;;;;;;;;;;14.10;49.80;;;;;;5094256;28;19943;-76
2023/04/10 03:28:21;;;;;;;;;;;14.00;49.70;;;;;;5095262;28;20242;-77
2023/04/10 03:30:47;;;;;;;;;;;14.00;49.80;;;;;;5095273;28;20256;-76
2023/04/10 03:33:13;;;;;;;;;;;14.00;49.70;;;;;;5094236;28;20010;-76
2023/04/10 03:35:38;;;;;;;;;;;14.00;49.80;;;;;;5095282;28;20444;-76
2023/04/10 03:38:04;;;;;;;;;;;14.00;49.70;;;;;;5093818;28;20006;-76
2023/04/10 03:40:30;;;;;;;;;;;14.00;49.80;;;;;;5095048;28;19920;-76
2023/04/10 03:42:55;;;;;;;;;;;14.00;49.80;;;;;;5094067;28;20267;-76
2023/04/10 03:45:21;;;;;;;;;;;14.00;49.70;;;;;;5093689;28;19970;-76
2023/04/10 03:47:46;;;;;;;;;;;14.00;49.70;;;;;;5093732;28;19919;-77
2023/04/10 03:50:12;;;;;;;;;;;14.00;49.70;;;;;;5093874;28;19920;-77
2023/04/10 03:52:37;;;;;;;;;;;14.00;49.70;;;;;;5095173;28;19942;-76
2023/04/10 03:55:03;;;;;;;;;;;14.00;49.70;;;;;;5094791;28;19971;-75
2023/04/10 03:57:28;;;;;;;;;;;14.00;49.70;;;;;;5093855;28;19920;-74
2023/04/10 03:59:54;;;;;;;;;;;14.00;49.80;;;;;;5093383;28;20322;-77
2023/04/10 04:02:19;;;;;;;;;;;14.00;49.70;;;;;;5093508;28;19974;-76
2023/04/10 04:04:45;;;;;;;;;;;14.00;49.70;;;;;;5093656;28;20391;-76
2023/04/10 04:07:12;;;;;;;;;;;14.00;49.70;;;;;;5093130;28;19991;-74
2023/04/10 04:09:38;;;;;;;;;;;14.00;49.70;;;;;;5111539;28;20275;-74
2023/04/10 04:12:03;;;;;;;;;;;14.00;49.70;;;;;;5096403;28;19940;-77
2023/04/10 04:14:29;;;;;;;;;;;14.00;49.70;;;;;;5096446;28;19920;-76
2023/04/10 04:16:54;;;;;;;;;;;13.90;49.70;;;;;;5114948;28;19923;-76
2023/04/10 04:19:20;;;;;;;;;;;13.90;49.70;;;;;;5096409;28;19920;-77
2023/04/10 04:21:45;;;;;;;;;;;13.90;49.70;;;;;;5096772;28;19919;-76
2023/04/10 04:24:11;;;;;;;;;;;14.00;49.70;;;;;;5096456;28;19920;-76
2023/04/10 04:26:36;;;;;;;;;;;13.90;49.70;;;;;;5096433;28;19919;-76
2023/04/10 04:29:02;;;;;;;;;;;14.00;49.70;;;;;;5096069;28;19946;-76
2023/04/10 04:31:31;;;;;;;;;;;13.90;49.70;;;;;;5095203;28;19959;-76
2023/04/10 04:33:57;;;;;;;;;;;13.90;49.70;;;;;;5114304;28;19926;-76
2023/04/10 04:36:22;;;;;;;;;;;13.90;49.70;;;;;;5114259;28;19920;-76
2023/04/10 04:38:48;;;;;;;;;;;13.90;49.70;;;;;;5114222;28;19938;-76
2023/04/10 04:41:14;;;;;;;;;;;13.90;49.70;;;;;;5096276;28;19927;-76
2023/04/10 04:43:40;;;;;;;;;;;13.90;49.60;;;;;;5113960;28;19950;-76
2023/04/10 04:46:05;;;;;;;;;;;13.90;49.60;;;;;;5114377;28;19920;-77
2023/04/10 04:48:31;;;;;;;;;;;13.90;49.60;;;;;;5095880;28;19924;-77
2023/04/10 04:50:56;;;;;;;;;;;13.90;49.70;;;;;;5096026;28;20260;-73
2023/04/10 04:53:22;;;;;;;;;;;13.90;49.60;;;;;;5095910;28;19926;-76
2023/04/10 04:55:47;;;;;;;;;;;13.90;49.70;;;;;;5095723;28;20318;-76
2023/04/10 04:58:13;;;;;;;;;;;13.90;49.60;;;;;;5095775;28;19919;-76
2023/04/10 05:00:38;;;;;;;;;;;13.90;49.60;;;;;;5095501;28;20480;-76
2023/04/10 05:03:05;;;;;;;;;;;13.90;49.60;;;;;;5095755;28;19969;-77
2023/04/10 05:05:31;;;;;;;;;;;13.90;49.60;;;;;;5095678;28;19985;-75
2023/04/10 05:07:56;;;;;;;;;;;13.90;49.60;;;;;;5095099;28;19932;-76
2023/04/10 05:10:22;;;;;;;;;;;13.90;49.60;;;;;;5113646;28;19920;-76
2023/04/10 05:12:47;;;;;;;;;;;13.90;49.60;;;;;;5095310;28;19920;-76
2023/04/10 05:15:13;;;;;;;;;;;13.90;49.60;;;;;;5095133;28;19920;-74
2023/04/10 05:17:38;;;;;;;;;;;13.90;49.60;;;;;;5113023;28;20022;-75
2023/04/10 05:20:04;;;;;;;;;;;13.90;49.60;;;;;;5095095;28;19931;-76
2023/04/10 05:22:29;;;;;;;;;;;13.90;49.60;;;;;;5095393;28;19989;-76
2023/04/10 05:24:55;;;;;;;;;;;13.80;49.50;;;;;;5095018;28;19919;-76
2023/04/10 05:27:21;;;;;;;;;;;13.90;49.60;;;;;;5095406;28;19972;-76
2023/04/10 05:29:46;;;;;;;;;;;13.90;49.60;;;;;;5113102;28;20022;-76
2023/04/10 05:32:12;;;;;;;;;;;13.90;49.60;;;;;;5095288;28;20367;-76
2023/04/10 05:34:38;;;;;;;;;;;13.90;49.60;;;;;;5094826;28;19920;-76
2023/04/10 05:37:03;;;;;;;;;;;13.80;49.50;;;;;;5113125;28;20018;-74
2023/04/10 05:39:29;;;;;;;;;;;13.80;49.50;;;;;;5094898;28;20010;-76
2023/04/10 05:41:55;;;;;;;;;;;13.90;49.50;;;;;;5094122;28;19923;-74
2023/04/10 05:44:24;;;;;;;;;;;13.80;49.50;;;;;;5094807;28;19919;-77
2023/04/10 05:46:49;;;;;;;;;;;13.90;49.50;;;;;;5094743;28;19969;-77
2023/04/10 05:49:15;;;;;;;;;;;13.90;49.50;;;;;;5094831;28;19928;-77
2023/04/10 05:51:41;;;;;;;;;;;13.80;49.50;;;;;;5113289;28;19920;-76
2023/04/10 05:54:06;;;;;;;;;;;13.80;49.50;;;;;;5095149;28;19919;-76
2023/04/10 05:56:32;;;;;;;;;;;13.80;49.50;;;;;;5094919;28;19920;-74
2023/04/10 05:58:57;;;;;;;;;;;13.80;49.50;;;;;;5112910;28;20006;-73
2023/04/10 06:01:23;;;;;;;;;;;13.80;49.40;;;;;;5094439;28;19924;-76
2023/04/10 06:03:48;;;;;;;;;;;13.80;49.50;;;;;;5094898;28;20016;-76
2023/04/10 06:06:14;;;;;;;;;;;13.80;49.50;;;;;;5094557;28;20295;-76
2023/04/10 06:08:40;;;;;;;;;;;13.80;49.40;;;;;;5094639;28;19923;-76
2023/04/10 06:11:05;;;;;;;;;;;13.80;49.40;;;;;;5094438;28;20389;-76
2023/04/10 06:13:32;;;;;;;;;;;13.90;49.40;;;;;;5112813;28;19947;-76
2023/04/10 06:15:57;;;;;;;;;;;13.80;49.40;;;;;;5094401;28;19919;-76
2023/04/10 06:18:23;;;;;;;;;;;13.80;49.40;;;;;;5112661;28;19920;-76
2023/04/10 06:20:48;;;;;;;;;;;13.80;49.40;;;;;;5094802;28;20400;-78
2023/04/10 06:23:14;;;;;;;;;;;13.80;49.40;;;;;;5094361;28;19938;-76
2023/04/10 06:25:40;;;;;;;;;;;13.80;49.40;;;;;;5112760;28;19954;-77
2023/04/10 06:28:06;;;;;;;;;;;13.90;49.40;;;;;;5112564;28;20041;-76
2023/04/10 06:30:33;;;;;;;;;;;13.80;49.40;;;;;;5094314;28;20017;-75
2023/04/10 06:32:59;;;;;;;;;;;13.80;49.30;;;;;;5112440;28;19975;-75
2023/04/10 06:35:24;;;;;;;;;;;13.90;49.40;;;;;;5112689;28;19923;-77
2023/04/10 06:37:50;;;;;;;;;;;13.90;49.40;;;;;;5112828;28;19965;-73
2023/04/10 06:40:15;;;;;;;;;;;13.90;49.40;;;;;;5094562;28;19927;-76
2023/04/10 06:42:41;;;;;;;;;;;13.90;49.40;;;;;;5094115;28;20433;-75
2023/04/10 06:45:07;;;;;;;;;;;13.80;49.30;;;;;;5094549;28;19919;-76
2023/04/10 06:47:33;;;;;;;;;;;13.90;49.40;;;;;;5112342;28;20436;-76
2023/04/10 06:49:58;;;;;;;;;;;13.80;49.30;;;;;;5094162;28;19931;-77
2023/04/10 06:52:24;;;;;;;;;;;13.80;49.30;;;;;;5094140;28;19969;-76
2023/04/10 06:54:49;;;;;;;;;;;13.90;49.30;;;;;;5094688;28;19969;-76
2023/04/10 06:57:15;;;;;;;;;;;13.80;49.30;;;;;;5098203;28;20002;-75
2023/04/10 06:59:41;;;;;;;;;;;13.80;49.30;;;;;;5097944;28;19920;-76
2023/04/10 07:02:06;;;;;;;;;;;13.90;49.30;;;;;;5098072;28;19927;-75
2023/04/10 07:04:32;;;;;;;;;;;13.80;49.30;;;;;;5115999;28;19924;-76
2023/04/10 07:06:57;;;;;;;;;;;13.90;49.30;;;;;;5097789;28;19920;-75
2023/04/10 07:09:25;;;;;;;;;;;13.90;49.30;;;;;;5115675;28;19924;-75
2023/04/10 07:11:50;;;;;;;;;;;13.80;49.30;;;;;;5097607;28;20398;-75
2023/04/10 07:14:16;;;;;;;;;;;13.80;49.20;;;;;;5097824;28;20008;-75
2023/04/10 07:16:42;;;;;;;;;;;13.90;49.30;;;;;;5097989;28;19920;-75
2023/04/10 07:19:07;;;;;;;;;;;13.90;49.30;;;;;;5097378;28;20064;-75
2023/04/10 07:21:33;;;;;;;;;;;13.90;49.20;;;;;;5097475;28;19927;-76
2023/04/10 07:23:58;;;;;;;;;;;13.90;49.20;;;;;;5097587;28;19943;-76
2023/04/10 07:26:24;;;;;;;;;;;13.90;49.20;;;;;;5097369;28;20007;-75
2023/04/10 07:28:50;;;;;;;;;;;13.90;49.20;;;;;;5097168;28;19924;-75
2023/04/10 07:31:17;;;;;;;;;;;13.90;49.20;;;;;;5097576;28;20034;-75
2023/04/10 07:33:43;;;;;;;;;;;13.90;49.20;;;;;;5097130;28;19926;-75
2023/04/10 07:36:09;;;;;;;;;;;13.90;49.20;;;;;;5097474;28;20018;-76
2023/04/10 07:38:35;;;;;;;;;;;13.90;49.20;;;;;;5097084;28;20327;-73
2023/04/10 07:41:00;;;;;;;;;;;13.90;49.10;;;;;;5097422;28;19920;-72
2023/04/10 07:43:26;;;;;;;;;;;13.90;49.20;;;;;;5115316;28;20324;-75
2023/04/10 07:45:51;;;;;;;;;;;13.90;49.20;;;;;;5097234;28;20420;-76
2023/04/10 07:48:17;;;;;;;;;;;13.90;49.10;;;;;;5096880;28;19967;-72
2023/04/10 07:50:42;;;;;;;;;;;13.90;49.20;;;;;;5096737;28;20286;-76
2023/04/10 07:53:08;;;;;;;;;;;14.00;49.10;;;;;;5097109;28;19919;-76
2023/04/10 07:55:37;;;;;;;;;;;13.90;49.10;;;;;;5114495;28;19927;-75
2023/04/10 07:58:03;;;;;;;;;;;13.90;49.10;;;;;;5097106;28;19923;-74
2023/04/10 08:00:29;;;;;;;;;;;14.00;49.20;;;;;;5096771;28;20328;-75
2023/04/10 08:02:54;;;;;;;;;;;14.00;49.10;;;;;;5114999;28;19965;-72
2023/04/10 08:05:20;;;;;;;;;;;13.90;49.10;;;;;;5096468;28;20493;-75
2023/04/10 08:07:46;;;;;;;;;;;14.00;49.10;;;;;;5096189;28;19972;-74
2023/04/10 08:10:11;;;;;;;;;;;14.00;49.10;;;;;;5114927;28;20300;-72
2023/04/10 08:12:37;;;;;;;;;;;14.00;49.10;;;;;;5096454;28;20411;-75
2023/04/10 08:15:02;;;;;;;;;;;14.00;49.10;;;;;;5114659;28;19919;-72
2023/04/10 08:17:28;;;;;;;;;;;14.00;49.00;;;;;;5096302;28;19920;-75
2023/04/10 08:19:53;;;;;;;;;;;14.00;49.70;;;;;;5114526;28;19934;-76
2023/04/10 08:22:21;;;;;;;;;;;14.00;49.00;;;;;;5096527;28;19920;-76
2023/04/10 08:24:47;;;;;;;;;;;14.00;49.00;;;;;;5114615;28;19920;-73
2023/04/10 08:27:14;;;;;;;;;;;14.00;48.90;;;;;;5096259;28;19927;-73
2023/04/10 08:29:40;;;;;;;;;;;14.10;49.00;;;;;;5096161;28;19920;-76
2023/04/10 08:32:06;;;;;;;;;;;14.10;49.00;;;;;;5096593;28;20401;-76
2023/04/10 08:34:31;;;;;;;;;;;14.10;48.90;;;;;;5095961;28;20325;-77
2023/04/10 08:36:56;;;;;;;;;;;14.10;48.90;;;;;;5095802;28;19920;-76
2023/04/10 08:39:22;;;;;;;;;;;14.30;49.00;;;;;;5096247;28;20010;-76
2023/04/10 08:41:48;;;;;;;;;;;14.10;48.90;;;;;;5114069;28;20386;-76
2023/04/10 08:44:13;;;;;;;;;;;14.10;48.80;;;;;;5114218;28;19920;-74
2023/04/10 08:46:41;;;;;;;;;;;14.10;48.80;;;;;;5095745;28;19920;-76
2023/04/10 08:49:08;;;;;;;;;;;14.10;48.80;;;;;;5095736;28;20173;-76
2023/04/10 08:51:38;;;;;;;;;;;14.10;48.80;;;;;;5095657;28;20472;-75
2023/04/10 08:54:05;;;;;;;;;;;14.10;48.70;;;;;;5095693;28;19919;-76
2023/04/10 08:56:32;;;;;;;;;;;14.10;48.70;;;;;;5096057;28;20006;-75
2023/04/10 08:58:57;;;;;;;;;;;14.20;48.90;;;;;;5113903;28;20339;-75
2023/04/10 09:01:24;;;;;;;;;;;14.10;48.70;;;;;;5095666;28;20008;-76
2023/04/10 09:03:50;;;;;;;;;;;14.10;48.70;;;;;;5095466;28;19969;-76
2023/04/10 09:06:15;;;;;;;;;;;14.20;48.60;;;;;;5095191;28;19926;-76
2023/04/10 09:08:41;;;;;;;;;;;14.20;48.50;;;;;;5113673;28;19924;-75
2023/04/10 09:11:06;;;;;;;;;;;14.20;48.50;;;;;;5113833;28;19984;-75
2023/04/10 09:13:36;;;;;;;;;;;14.20;48.50;;;;;;5095377;28;19973;-76
2023/04/10 09:16:02;;;;;;;;;;;14.10;48.40;;;;;;5095353;28;19920;-74
2023/04/10 09:18:45;;;;;;;;;;;14.20;48.40;;;;;;5094948;28;19965;-75
2023/04/10 09:21:12;;;;;;;;;;;14.20;48.50;;;;;;5095311;28;20383;-76
2023/04/10 09:23:37;;;;;;;;;;;14.20;48.40;;;;;;5095021;28;20014;-76
2023/04/10 09:26:23;;;;;;;;;;;14.20;48.50;;;;;;5095613;28;20019;-74
2023/04/10 09:29:11;;;;;;;;;;;14.20;48.50;;;;;;5094899;28;19978;-76
2023/04/10 09:31:37;;;;;;;;;;;14.20;48.40;;;;;;5113301;28;20006;-74
2023/04/10 09:34:06;;;;;;;;;;;14.20;48.50;;;;;;5095059;28;20022;-77
2023/04/10 09:36:32;;;;;;;;;;;14.20;48.40;;;;;;5094906;28;20371;-75
2023/04/10 09:38:57;;;;;;;;;;;14.20;48.40;;;;;;5094863;28;19927;-74
2023/04/10 09:41:23;;;;;;;;;;;14.20;48.50;;;;;;5094892;28;20035;-76
2023/04/10 09:43:48;;;;;;;;;;;14.20;48.50;;;;;;5095067;28;20018;-75
2023/04/10 09:46:25;;;;;;;;;;;14.20;48.40;;;;;;5113080;28;20353;-77
2023/04/10 09:48:54;;;;;;;;;;;14.30;48.40;;;;;;5093948;28;19935;-76
2023/04/10 09:51:34;;;;;;;;;;;14.30;48.50;;;;;;5094684;28;19920;-76
2023/04/10 09:54:01;;;;;;;;;;;14.20;48.40;;;;;;5094611;28;20296;-75
2023/04/10 09:56:27;;;;;;;;;;;14.30;48.50;;;;;;5094909;28;19920;-72
2023/04/10 09:58:55;;;;;;;;;;;14.30;48.50;;;;;;5094882;28;19919;-72
2023/04/10 10:01:21;;;;;;;;;;;14.30;48.50;;;;;;5094610;28;20379;-76
2023/04/10 10:03:46;;;;;;;;;;;14.30;48.50;;;;;;5094920;28;20064;-75
2023/04/10 10:06:12;;;;;;;;;;;14.30;48.50;;;;;;5094928;28;20480;-77
2023/04/10 10:08:38;;;;;;;;;;;14.30;48.40;;;;;;5094189;28;19924;-76
2023/04/10 10:11:07;;;;;;;;;;;14.30;48.50;;;;;;5095007;28;19974;-75
2023/04/10 10:13:37;;;;;;;;;;;14.30;48.50;;;;;;5094417;28;19969;-76
2023/04/10 10:16:07;;;;;;;;;;;14.30;48.50;;;;;;5094515;28;19919;-74
2023/04/10 10:18:52;;;;;;;;;;;14.30;48.50;;;;;;5094759;28;19989;-76
2023/04/10 10:21:19;;;;;;;;;;;14.30;48.50;;;;;;5094581;28;20417;-76
2023/04/10 10:23:47;;;;;;;;;;;14.40;48.50;;;;;;5094620;28;20294;-76
2023/04/10 10:26:13;;;;;;;;;;;14.30;48.50;;;;;;5094757;28;19919;-76
2023/04/10 10:28:39;;;;;;;;;;;14.30;48.50;;;;;;5112700;28;20382;-78
2023/04/10 10:31:05;;;;;;;;;;;14.40;48.50;;;;;;5115366;28;19930;-76
2023/04/10 10:33:31;;;;;;;;;;;14.40;48.60;;;;;;5098627;28;20378;-75
2023/04/10 10:35:59;;;;;;;;;;;14.30;48.60;;;;;;5098627;28;19927;-77
2023/04/10 10:38:25;;;;;;;;;;;14.40;48.60;;;;;;5116640;28;19927;-76
2023/04/10 10:40:53;;;;;;;;;;;14.40;48.60;;;;;;5098149;28;20447;-74
2023/04/10 10:46:03;;;;;;;;;;;14.40;48.60;;;;;;5089954;28;19912;-77
2023/04/10 10:48:28;;;;;;;;;;;14.40;48.60;;;;;;5089118;28;20298;-76
2023/04/10 10:50:56;;;;;;;;;;;14.50;48.70;;;;;;5088544;28;19926;-73
2023/04/10 10:53:30;;;;;;;;;;;14.40;48.70;;;;;;5089792;28;19920;-76
2023/04/10 10:55:56;;;;;;;;;;;14.40;48.70;;;;;;5089780;28;19920;-74
2023/04/10 10:58:41;;;;;;;;;;;14.40;48.60;;;;;;5088755;28;19920;-73
2023/04/10 11:01:07;;;;;;;;;;;14.40;48.60;;;;;;5088069;28;19927;-76
2023/04/10 11:03:32;;;;;;;;;;;14.40;48.70;;;;;;5088540;28;19921;-76
2023/04/10 11:06:01;;;;;;;;;;;14.50;48.70;;;;;;5088228;28;19966;-76
2023/04/10 11:08:43;;;;;;;;;;;14.40;48.60;;;;;;5089622;28;19928;-76
2023/04/10 11:11:17;;;;;;;;;;;14.40;48.70;;;;;;5087195;28;19970;-76
2023/04/10 11:14:02;;;;;;;;;;;14.40;48.60;;;;;;5087195;28;20019;-75
2023/04/10 11:19:13;;;;;;;;;;;14.40;48.70;;;;;;5090026;28;19919;-76
2023/04/10 11:21:58;;;;;;;;;;;14.40;48.80;;;;;;5088842;28;20300;-75
2023/04/10 11:24:25;;;;;;;;;;;14.40;48.70;;;;;;5088590;28;19921;-75
2023/04/10 11:26:50;;;;;;;;;;;14.40;48.90;;;;;;5088422;28;19966;-74
2023/04/10 11:31:57;;;;;;;;;;;14.40;48.90;;;;;;5110255;27;19912;-75
2023/04/10 11:34:23;;;;;;;;;;;14.40;48.80;;;;;;5109201;28;19989;-74
2023/04/10 11:36:49;;;;;;;;;;;14.40;49.00;;;;;;5108820;28;19924;-76
2023/04/10 11:39:17;;;;;;;;;;;14.40;48.90;;;;;;5109217;28;19970;-75
2023/04/10 11:47:05;;;;;;;;;;;14.40;49.00;;;;;;5089907;28;19912;-76
2023/04/10 11:49:31;;;;;;;;;;;14.40;49.00;;;;;;5088928;28;20431;-74
2023/04/10 11:51:57;;;;;;;;;;;14.50;49.10;;;;;;5088454;28;20007;-76
2023/04/10 11:54:24;;;;;;;;;;;14.40;49.10;;;;;;5087853;28;20019;-75
2023/04/10 11:56:58;;;;;;;;;;;14.40;49.00;;;;;;5088807;28;19975;-72
2023/04/10 11:59:24;;;;;;;;;;;14.40;49.10;;;;;;5088411;28;19927;-75
2023/04/10 12:01:52;;;;;;;;;;;14.50;49.10;;;;;;5088371;28;19927;-74
2023/04/10 12:04:19;;;;;;;;;;;14.40;49.10;;;;;;5088669;28;20269;-75
2023/04/10 12:06:45;;;;;;;;;;;14.40;49.00;;;;;;5088090;28;20406;-76
2023/04/10 12:09:11;;;;;;;;;;;14.40;49.10;;;;;;5088197;28;19950;-76
2023/04/10 12:11:37;;;;;;;;;;;14.50;49.10;;;;;;5088481;28;20395;-73
2023/04/10 12:14:03;;;;;;;;;;;14.40;49.10;;;;;;5088144;28;19920;-74
2023/04/10 12:16:28;;;;;;;;;;;14.50;49.20;;;;;;5088102;28;19921;-76
2023/04/10 12:18:54;;;;;;;;;;;14.50;49.10;;;;;;5087935;28;19921;-76
2023/04/10 12:21:20;;;;;;;;;;;14.50;49.20;;;;;;5088346;28;19927;-77
2023/04/10 12:23:45;;;;;;;;;;;14.50;49.20;;;;;;5087885;28;20390;-75
2023/04/10 12:26:12;;;;;;;;;;;14.50;49.10;;;;;;5089349;28;19924;-75
2023/04/10 12:28:39;;;;;;;;;;;14.50;49.20;;;;;;5087904;28;19959;-75
2023/04/10 12:31:04;;;;;;;;;;;14.50;49.30;;;;;;5088156;28;19927;-75
2023/04/10 12:33:30;;;;;;;;;;;14.50;49.10;;;;;;5089069;28;19920;-77
2023/04/10 12:35:56;;;;;;;;;;;14.50;49.30;;;;;;5088072;28;19928;-74
2023/04/10 12:38:41;;;;;;;;;;;14.50;49.30;;;;;;5087578;28;20391;-76
2023/04/10 12:41:08;;;;;;;;;;;14.50;49.30;;;;;;5087551;28;19930;-73
2023/04/10 12:43:35;;;;;;;;;;;14.50;49.20;;;;;;5089257;28;19928;-76
2023/04/10 12:46:01;;;;;;;;;;;14.50;49.40;;;;;;5100347;28;19924;-77
2023/04/10 12:48:26;;;;;;;;;;;14.50;49.40;;;;;;5090224;28;19931;-75
2023/04/10 12:50:52;;;;;;;;;;;14.50;49.30;;;;;;5090704;28;19920;-74
2023/04/10 12:53:17;;;;;;;;;;;14.50;49.40;;;;;;5090765;28;19920;-75
2023/04/10 12:55:59;;;;;;;;;;;14.50;49.40;;;;;;5090657;28;19920;-75
2023/04/10 12:58:27;;;;;;;;;;;14.50;49.50;;;;;;5077049;28;19920;-76
2023/04/10 13:00:53;;;;;;;;;;;14.50;49.40;;;;;;5077024;28;19932;-72
2023/04/10 13:03:19;;;;;;;;;;;14.50;49.50;;;;;;5077122;28;19920;-77
2023/04/10 13:05:45;;;;;;;;;;;14.50;49.60;;;;;;5094994;28;19984;-77
2023/04/10 13:08:10;;;;;;;;;;;14.50;49.50;;;;;;5095314;28;19920;-76
2023/04/10 13:10:37;;;;;;;;;;;14.50;49.60;;;;;;5095038;28;20014;-77
2023/04/10 13:13:03;;;;;;;;;;;14.50;49.40;;;;;;5077248;28;20018;-76
2023/04/10 13:15:28;;;;;;;;;;;14.50;49.50;;;;;;5094985;28;19963;-76
2023/04/10 13:17:54;;;;;;;;;;;14.50;49.60;;;;;;5076827;28;20395;-77
2023/04/10 13:20:20;;;;;;;;;;;14.50;49.50;;;;;;5094833;28;19926;-77
2023/04/10 13:22:46;;;;;;;;;;;14.60;49.60;;;;;;5076706;28;19920;-77
2023/04/10 13:25:11;;;;;;;;;;;14.60;49.60;;;;;;5076766;28;19978;-76
2023/04/10 13:27:37;;;;;;;;;;;14.60;49.70;;;;;;5076958;28;20567;-76
2023/04/10 13:30:02;;;;;;;;;;;14.60;49.60;;;;;;5077035;28;19969;-76
2023/04/10 13:32:28;;;;;;;;;;;14.60;49.80;;;;;;5076566;28;20398;-75
2023/04/10 13:34:53;;;;;;;;;;;14.60;49.70;;;;;;5076398;28;19927;-76
2023/04/10 13:37:19;;;;;;;;;;;14.60;49.60;;;;;;5076621;28;19978;-77
2023/04/10 13:39:45;;;;;;;;;;;14.60;49.80;;;;;;5076367;28;19920;-76
2023/04/10 13:42:10;;;;;;;;;;;14.60;49.70;;;;;;5094370;28;20006;-75
2023/04/10 13:44:35;;;;;;;;;;;14.60;49.80;;;;;;5094468;28;20155;-76
2023/04/10 13:47:01;;;;;;;;;;;14.60;49.80;;;;;;5075090;28;19931;-74
2023/04/10 13:49:29;;;;;;;;;;;14.60;49.90;;;;;;5094074;28;20048;-77
2023/04/10 13:51:55;;;;;;;;;;;14.60;49.90;;;;;;5076095;28;19962;-77
2023/04/10 13:54:21;;;;;;;;;;;14.60;49.90;;;;;;5076432;28;20372;-75
2023/04/10 13:56:46;;;;;;;;;;;14.60;49.90;;;;;;5094141;28;19931;-76
2023/04/10 13:59:12;;;;;;;;;;;14.60;50.00;;;;;;5075979;28;19927;-73
2023/04/10 14:01:38;;;;;;;;;;;14.60;49.90;;;;;;5076163;28;20001;-76
2023/04/10 14:04:03;;;;;;;;;;;14.60;49.90;;;;;;5075982;28;19920;-77
2023/04/10 14:06:30;;;;;;;;;;;14.60;49.90;;;;;;5075620;28;19924;-77
2023/04/10 14:08:55;;;;;;;;;;;14.60;50.00;;;;;;5075471;28;19924;-74
2023/04/10 14:11:21;;;;;;;;;;;14.60;49.90;;;;;;5075690;28;20432;-77
2023/04/10 14:13:47;;;;;;;;;;;14.60;50.00;;;;;;5093819;28;19931;-76
2023/04/10 14:16:13;;;;;;;;;;;14.60;49.90;;;;;;5075698;28;19920;-76
2023/04/10 14:18:39;;;;;;;;;;;14.60;50.00;;;;;;5093644;28;19924;-76
2023/04/10 14:21:04;;;;;;;;;;;14.60;50.00;;;;;;5075868;28;19931;-77
2023/04/10 14:23:30;;;;;;;;;;;14.60;50.00;;;;;;5075446;28;19958;-76
2023/04/10 14:25:55;;;;;;;;;;;14.70;50.10;;;;;;5075817;28;19931;-76
2023/04/10 14:28:21;;;;;;;;;;;14.60;50.00;;;;;;5093702;28;19920;-76
2023/04/10 14:30:47;;;;;;;;;;;14.70;50.00;;;;;;5093545;28;19985;-76
2023/04/10 14:33:13;;;;;;;;;;;14.60;50.10;;;;;;5093475;28;20395;-76
2023/04/10 14:35:39;;;;;;;;;;;14.70;50.20;;;;;;5093488;28;19946;-76